Time;durP1;ratioP1;P1;durP2;ratioP2;P2;SDS_P1;SDS_P2;PMS_P1;PMS_P2;Temp;Humidity;BMP_temperature;BMP_pressure;BME280_temperature;BME280_humidity;BME280_pressure;Samples;Min_cycle;Max_cycle;Signal;HPM_P1;HPM_P2
2023/07/16 00:01:56;;;;;;;3.47;1.52;;;;;;;17.33;80.64;100806.00;4991793;28;20112;-90
2023/07/16 00:04:22;;;;;;;3.05;1.27;;;;;;;17.29;79.87;100815.00;5009806;28;20033;-90
2023/07/16 00:06:47;;;;;;;2.97;1.30;;;;;;;17.26;80.12;100808.13;5011591;28;20026;-90
2023/07/16 00:09:12;;;;;;;6.40;1.70;;;;;;;17.23;80.70;100804.84;5007960;28;20474;-89
2023/07/16 00:11:38;;;;;;;3.28;1.30;;;;;;;17.19;80.54;100809.38;5009112;28;20454;-90
2023/07/16 00:14:03;;;;;;;4.00;1.40;;;;;;;17.13;80.82;100821.09;5010971;28;20383;-89
2023/07/16 00:16:29;;;;;;;4.28;1.38;;;;;;;17.11;80.89;100814.22;5009311;28;20030;-89
2023/07/16 00:18:54;;;;;;;3.58;1.50;;;;;;;17.06;80.64;100818.88;5011447;28;20029;-88
2023/07/16 00:21:19;;;;;;;3.63;1.40;;;;;;;17.01;80.64;100819.13;5028665;28;20066;-90
2023/07/16 00:23:45;;;;;;;3.65;1.50;;;;;;;16.96;80.60;100813.25;5035491;28;20058;-90
2023/07/16 00:26:10;;;;;;;3.72;1.48;;;;;;;16.93;80.06;100834.41;5019077;28;20514;-90
2023/07/16 00:28:35;;;;;;;4.57;1.42;;;;;;;16.89;80.65;100827.63;5013242;28;21226;-90
2023/07/16 00:31:01;;;;;;;4.28;1.92;;;;;;;16.87;80.69;100826.84;5011620;28;20030;-89
2023/07/16 00:33:26;;;;;;;3.08;1.58;;;;;;;16.84;80.71;100826.09;5011972;28;20068;-88
2023/07/16 00:35:52;;;;;;;4.18;1.33;;;;;;;16.82;80.54;100822.69;5009643;28;20061;-89
2023/07/16 00:38:18;;;;;;;3.22;1.48;;;;;;;16.81;81.54;100826.25;5011787;28;20021;-90
2023/07/16 00:40:43;;;;;;;4.60;1.70;;;;;;;16.79;81.45;100822.84;5010861;28;20034;-90
2023/07/16 00:43:09;;;;;;;3.50;1.38;;;;;;;16.79;82.00;100827.25;5010128;28;20467;-89
2023/07/16 00:45:34;;;;;;;4.95;1.70;;;;;;;16.78;82.48;100821.13;5010456;28;20030;-89
2023/07/16 00:48:00;;;;;;;4.07;1.70;;;;;;;16.77;82.76;100813.34;4991858;28;20503;-91
2023/07/16 00:50:25;;;;;;;5.43;1.88;;;;;;;16.76;83.08;100822.16;5011482;28;20072;-90
2023/07/16 00:52:50;;;;;;;7.28;2.20;;;;;;;16.74;83.56;100824.84;4994351;28;20111;-89
2023/07/16 00:55:16;;;;;;;4.80;2.03;;;;;;;16.73;83.81;100823.19;5009433;28;20522;-89
2023/07/16 00:57:41;;;;;;;4.10;1.70;;;;;;;16.69;84.38;100819.00;5009900;28;20033;-89
2023/07/16 01:00:07;;;;;;;6.15;1.80;;;;;;;16.66;84.40;100821.78;5011441;28;20364;-91
2023/07/16 01:02:33;;;;;;;2.92;1.58;;;;;;;16.65;84.73;100826.19;5011292;28;20198;-91
2023/07/16 01:04:59;;;;;;;3.70;1.50;;;;;;;16.65;85.16;100820.91;5010835;28;20186;-90
2023/07/16 01:07:26;;;;;;;4.38;1.58;;;;;;;16.64;85.86;100810.50;5010792;28;20030;-92
2023/07/16 01:09:54;;;;;;;3.35;1.77;;;;;;;16.64;85.80;100816.63;5009184;28;20034;-91
2023/07/16 01:12:21;;;;;;;3.83;1.70;;;;;;;16.62;86.11;100825.50;4992507;28;20064;-92
2023/07/16 01:14:47;;;;;;;3.72;1.63;;;;;;;16.62;86.67;100830.75;5007599;28;20064;-91
2023/07/16 01:17:12;;;;;;;3.10;1.80;;;;;;;16.60;87.14;100827.34;5011319;28;20105;-91
2023/07/16 01:19:37;;;;;;;4.68;1.92;;;;;;;16.59;87.19;100826.50;5011236;28;20022;-91
2023/07/16 01:22:09;;;;;;;4.00;1.60;;;;;;;16.59;87.24;100823.03;5008277;28;20029;-92
2023/07/16 01:24:53;;;;;;;;;;;;;;;16.63;84.86;100824.56;5004311;28;20119;-91
2023/07/16 01:27:42;;;;;;;2.83;1.48;;;;;;;16.57;86.62;100817.03;5006572;28;19949;-90
2023/07/16 01:30:11;;;;;;;2.97;1.48;;;;;;;16.56;87.85;100810.06;5011022;28;20443;-90
2023/07/16 01:32:37;;;;;;;5.18;2.00;;;;;;;16.53;88.52;100808.44;5009300;28;20022;-89
2023/07/16 01:35:05;;;;;;;3.85;1.67;;;;;;;16.52;88.45;100809.34;5009773;28;20057;-90
2023/07/16 01:37:31;;;;;;;3.55;1.65;;;;;;;16.48;88.38;100798.16;5010151;28;20110;-90
2023/07/16 01:39:57;;;;;;;4.88;1.75;;;;;;;16.49;88.38;100804.25;5010426;28;20041;-90
2023/07/16 01:42:22;;;;;;;3.42;1.70;;;;;;;16.51;88.78;100826.03;5008837;28;20489;-90
2023/07/16 01:44:47;;;;;;;4.05;1.85;;;;;;;16.49;88.82;100814.75;5010207;28;20053;-90
2023/07/16 01:47:28;;;;;;;4.95;1.95;;;;;;;16.50;89.05;100819.94;5009899;28;20033;-90
2023/07/16 01:49:53;;;;;;;2.87;1.57;;;;;;;16.52;89.38;100819.88;5010477;28;20037;-90
2023/07/16 01:52:19;;;;;;;2.83;1.58;;;;;;;16.50;89.36;100816.47;5009794;28;20042;-91
2023/07/16 01:54:44;;;;;;;4.63;1.60;;;;;;;16.48;89.40;100811.28;5011026;28;20033;-90
2023/07/16 01:57:09;;;;;;;4.53;1.60;;;;;;;16.46;89.39;100815.78;5008948;28;20129;-91
2023/07/16 01:59:34;;;;;;;4.15;1.63;;;;;;;16.45;89.39;100818.50;5009977;28;20482;-90
2023/07/16 02:02:00;;;;;;;2.92;1.90;;;;;;;16.42;89.67;100816.84;4993243;28;20025;-91
2023/07/16 02:04:25;;;;;;;5.35;1.73;;;;;;;16.40;89.91;100823.94;5010197;28;20022;-90
2023/07/16 02:06:50;;;;;;;2.83;1.50;;;;;;;16.39;89.84;100819.66;5010407;28;20100;-91
2023/07/16 02:09:16;;;;;;;3.35;1.67;;;;;;;16.36;90.73;100810.13;5008167;28;20022;-91
2023/07/16 02:11:41;;;;;;;4.80;1.83;;;;;;;16.34;90.89;100814.63;4991297;28;20026;-89
2023/07/16 02:14:06;;;;;;;4.03;1.88;;;;;;;16.33;90.84;100815.53;5010161;28;20057;-92
2023/07/16 02:16:31;;;;;;;4.90;1.90;;;;;;;16.30;91.15;100809.59;5011208;28;20120;-91
2023/07/16 02:18:57;;;;;;;5.88;1.70;;;;;;;16.27;90.99;100820.25;5009580;28;20030;-91
2023/07/16 02:21:22;;;;;;;3.95;1.70;;;;;;;16.24;91.33;100816.03;4977643;28;20032;-90
2023/07/16 02:23:47;;;;;;;4.13;1.50;;;;;;;16.24;91.72;100821.28;5009476;28;20120;-90
2023/07/16 02:26:13;;;;;;;3.47;1.58;;;;;;;16.21;91.86;100822.28;4987436;28;20026;-90
2023/07/16 02:28:38;;;;;;;4.55;1.60;;;;;;;16.20;92.05;100820.59;5005450;28;20076;-90
2023/07/16 02:31:04;;;;;;;3.05;1.73;;;;;;;16.18;92.09;100826.81;5008795;28;20033;-90
2023/07/16 02:33:29;;;;;;;5.97;1.60;;;;;;;16.15;92.24;100827.81;5007508;28;20065;-91
2023/07/16 02:35:55;;;;;;;4.20;1.70;;;;;;;16.12;92.61;100817.47;4988304;28;20053;-91
2023/07/16 02:38:20;;;;;;;4.10;1.90;;;;;;;16.10;92.71;100819.31;4988286;28;20493;-90
2023/07/16 02:40:47;;;;;;;3.83;1.70;;;;;;;16.07;93.04;100822.09;5009824;28;20033;-91
2023/07/16 02:43:13;;;;;;;3.28;1.67;;;;;;;16.05;93.09;100837.09;5005588;28;20109;-90
2023/07/16 02:45:38;;;;;;;4.70;1.65;;;;;;;16.02;93.17;100834.59;5008245;28;20041;-91
2023/07/16 02:48:04;;;;;;;3.28;1.65;;;;;;;16.02;93.42;100842.47;5007440;28;20419;-92
2023/07/16 02:50:30;;;;;;;3.97;1.80;;;;;;;15.99;92.50;100842.63;5010820;28;20080;-90
2023/07/16 02:52:55;;;;;;;4.85;1.58;;;;;;;15.99;92.33;100838.22;5012156;28;20029;-90
2023/07/16 02:55:20;;;;;;;4.57;1.75;;;;;;;15.98;92.29;100851.41;5013725;28;20152;-90
2023/07/16 02:57:45;;;;;;;4.15;1.65;;;;;;;15.95;92.65;100851.56;5011312;28;20036;-90
2023/07/16 03:00:11;;;;;;;3.10;1.38;;;;;;;15.96;92.27;100850.63;5011622;28;20025;-91
2023/07/16 03:02:36;;;;;;;4.43;1.77;;;;;;;15.91;92.55;100851.69;5012091;28;20104;-91
2023/07/16 03:05:02;;;;;;;2.83;1.60;;;;;;;15.90;92.62;100855.25;5012219;28;20115;-89
2023/07/16 03:07:27;;;;;;;2.92;1.60;;;;;;;15.89;92.90;100843.06;4993344;28;20121;-90
2023/07/16 03:09:53;;;;;;;3.47;1.80;;;;;;;15.88;92.73;100846.63;5009764;28;20033;-90
2023/07/16 03:12:18;;;;;;;4.03;1.65;;;;;;;15.88;92.80;100851.00;5011620;28;20025;-91
2023/07/16 03:14:43;;;;;;;4.50;1.70;;;;;;;15.83;92.25;100848.56;4990576;28;20025;-90
2023/07/16 03:17:08;;;;;;;3.33;1.60;;;;;;;15.80;91.96;100847.88;5018464;28;20014;-90
2023/07/16 03:19:34;;;;;;;3.10;1.63;;;;;;;15.78;91.49;100855.81;5029332;28;20446;-90
2023/07/16 03:21:59;;;;;;;4.90;1.63;;;;;;;15.75;91.67;100858.56;4992492;28;20053;-91
2023/07/16 03:24:24;;;;;;;4.38;1.70;;;;;;;15.74;91.14;100869.97;5013283;28;20025;-92
2023/07/16 03:26:50;;;;;;;3.30;1.70;;;;;;;15.71;90.42;100865.75;4994845;28;20060;-92
2023/07/16 03:29:15;;;;;;;4.25;2.00;;;;;;;15.69;90.01;100864.13;5012284;28;20041;-91
2023/07/16 03:31:40;;;;;;;3.95;1.67;;;;;;;15.67;88.73;100869.44;5010090;28;20029;-92
2023/07/16 03:34:06;;;;;;;4.32;1.90;;;;;;;15.67;87.94;100858.94;4993504;28;20045;-92
2023/07/16 03:36:31;;;;;;;5.57;2.10;;;;;;;15.67;87.38;100860.72;4987751;28;20483;-91
2023/07/16 03:38:56;;;;;;;4.50;1.75;;;;;;;15.67;86.25;100868.59;5011018;28;20037;-91
2023/07/16 03:41:21;;;;;;;6.10;2.10;;;;;;;15.66;85.07;100866.88;4995186;28;20118;-92
2023/07/16 03:43:47;;;;;;;3.67;1.98;;;;;;;15.63;84.51;100873.97;5012177;28;20116;-90
2023/07/16 03:46:12;;;;;;;4.10;1.67;;;;;;;15.61;83.73;100878.44;5010825;28;20022;-90
2023/07/16 03:48:37;;;;;;;4.72;2.38;;;;;;;15.61;82.48;100890.72;5009707;28;20474;-90
2023/07/16 03:51:03;;;;;;;6.18;2.08;;;;;;;15.59;82.36;100890.75;5010052;28;20037;-92
2023/07/16 03:53:28;;;;;;;3.60;2.17;;;;;;;15.56;82.58;100893.53;5012719;28;20356;-91
2023/07/16 03:55:53;;;;;;;5.25;2.25;;;;;;;15.55;82.34;100891.81;5010623;28;20045;-90
2023/07/16 03:58:18;;;;;;;5.18;2.65;;;;;;;15.56;82.17;100898.75;5010906;28;20447;-90
2023/07/16 04:00:44;;;;;;;8.10;2.55;;;;;;;15.52;82.50;100902.47;5010386;28;20036;-91
2023/07/16 04:03:09;;;;;;;5.30;2.50;;;;;;;15.51;82.19;100907.75;5013601;28;20505;-92
2023/07/16 04:05:35;;;;;;;7.82;2.50;;;;;;;15.48;81.74;100906.16;4993529;28;20492;-91
2023/07/16 04:08:00;;;;;;;5.03;2.20;;;;;;;15.46;81.30;100908.81;5011840;28;20029;-92
2023/07/16 04:10:25;;;;;;;4.10;2.17;;;;;;;15.44;80.87;100915.06;5007653;28;20033;-92
2023/07/16 04:12:50;;;;;;;4.60;2.10;;;;;;;15.42;80.68;100916.91;5012518;28;20419;-91
2023/07/16 04:15:16;;;;;;;6.22;2.30;;;;;;;15.42;80.90;100922.13;5010876;28;20108;-92
2023/07/16 04:17:41;;;;;;;5.38;2.25;;;;;;;15.41;79.97;100920.44;5011490;28;20061;-90
2023/07/16 04:20:07;;;;;;;4.88;2.10;;;;;;;15.39;79.24;100924.91;5010190;28;20494;-90
2023/07/16 04:22:34;;;;;;;4.20;2.35;;;;;;;15.37;79.48;100929.38;5012515;28;20065;-92
2023/07/16 04:24:59;;;;;;;4.60;2.42;;;;;;;15.35;79.33;100926.81;4991335;28;20117;-91
2023/07/16 04:27:25;;;;;;;4.28;2.35;;;;;;;15.35;78.95;100932.06;5010247;28;20075;-93
2023/07/16 04:29:50;;;;;;;6.25;2.47;;;;;;;15.35;79.49;100931.22;4992741;28;20026;-91
2023/07/16 04:32:15;;;;;;;4.32;2.25;;;;;;;15.33;79.12;100945.25;5010358;28;20022;-92
2023/07/16 04:34:40;;;;;;;4.85;2.50;;;;;;;15.29;78.63;100935.81;5009706;28;20387;-92
2023/07/16 04:37:06;;;;;;;8.60;2.50;;;;;;;15.29;78.82;100942.78;4990077;28;20030;-91
2023/07/16 04:39:31;;;;;;;6.93;2.88;;;;;;;15.29;78.95;100953.28;5011892;28;20125;-92
2023/07/16 04:41:56;;;;;;;9.00;2.50;;;;;;;15.28;78.74;100952.44;5010690;28;20026;-92
2023/07/16 04:44:22;;;;;;;4.63;2.67;;;;;;;15.28;77.81;100956.84;5009932;28;20085;-92
2023/07/16 04:46:47;;;;;;;4.38;2.55;;;;;;;15.29;77.58;100963.75;5007455;28;20022;-93
2023/07/16 04:49:12;;;;;;;4.63;2.60;;;;;;;15.27;77.55;100950.75;5011363;28;20125;-93
2023/07/16 04:51:38;;;;;;;5.53;2.80;;;;;;;15.27;77.46;100948.13;5011251;28;20030;-94
2023/07/16 04:54:03;;;;;;;6.70;2.75;;;;;;;15.29;77.86;100959.38;4991415;28;20117;-95
2023/07/16 04:56:28;;;;;;;5.03;2.72;;;;;;;15.27;77.73;100963.00;4993274;28;20034;-93
2023/07/16 04:58:54;;;;;;;5.30;2.63;;;;;;;15.28;78.08;100968.16;5007105;28;20467;-92
2023/07/16 05:01:20;;;;;;;5.47;2.80;;;;;;;15.29;78.35;100967.25;5008018;28;20442;-91
2023/07/16 05:03:45;;;;;;;6.35;2.58;;;;;;;15.29;78.39;100972.50;4986749;28;20033;-92
2023/07/16 05:06:11;;;;;;;8.25;2.80;;;;;;;15.32;78.30;100980.22;5007541;28;20041;-91
2023/07/16 05:08:36;;;;;;;7.18;2.92;;;;;;;15.35;77.16;100983.63;4991211;28;20018;-94
2023/07/16 05:11:01;;;;;;;5.32;2.78;;;;;;;15.36;77.72;100974.88;4989742;28;20364;-92
2023/07/16 05:13:28;;;;;;;6.05;3.00;;;;;;;15.37;78.25;100979.19;4987892;28;20038;-94
2023/07/16 05:15:53;;;;;;;7.25;2.80;;;;;;;15.37;76.15;100972.16;4993704;28;20650;-93
2023/07/16 05:18:19;;;;;;;8.77;3.13;;;;;;;15.38;76.09;100976.47;4993306;28;20030;-92
2023/07/16 05:20:47;;;;;;;6.63;3.17;;;;;;;15.40;75.39;100976.41;5010663;28;20113;-91
2023/07/16 05:23:13;;;;;;;8.00;3.08;;;;;;;15.44;74.71;100977.97;4990676;28;20030;-92
2023/07/16 05:25:38;;;;;;;6.82;3.20;;;;;;;15.47;74.78;100989.19;5010335;28;20022;-92
2023/07/16 05:28:04;;;;;;;7.22;3.33;;;;;;;15.48;74.23;100980.41;4984299;28;20025;-93
2023/07/16 05:30:29;;;;;;;5.57;2.75;;;;;;;15.50;73.91;100987.34;5010375;28;20038;-94
2023/07/16 05:32:54;;;;;;;6.90;3.38;;;;;;;15.53;74.78;100990.72;4987634;28;20065;-92
2023/07/16 05:35:19;;;;;;;6.60;2.97;;;;;;;15.56;73.15;100987.91;5010465;28;20022;-92
2023/07/16 05:37:46;;;;;;;8.55;3.03;;;;;;;15.60;73.50;100993.91;5010854;28;20088;-93
2023/07/16 05:40:12;;;;;;;10.27;3.50;;;;;;;15.60;73.33;100989.50;5009386;28;20017;-90
2023/07/16 05:42:37;;;;;;;6.82;3.22;;;;;;;15.63;72.66;100993.75;5007494;28;20139;-91
2023/07/16 05:45:03;;;;;;;6.18;3.30;;;;;;;15.63;73.31;100991.97;5010319;28;20129;-93
2023/07/16 05:47:37;;;;;;;6.60;3.35;;;;;;;15.67;73.00;100994.47;5008676;28;20041;-93
2023/07/16 05:50:02;;;;;;;8.20;3.33;;;;;;;15.70;72.94;101002.22;5008170;28;20021;-91
2023/07/16 05:52:28;;;;;;;7.30;3.50;;;;;;;15.73;73.82;101004.69;5007773;28;21415;-91
2023/07/16 05:54:53;;;;;;;7.75;3.20;;;;;;;15.76;72.56;101000.16;4989388;28;20028;-92
2023/07/16 05:57:18;;;;;;;6.93;3.33;;;;;;;15.82;72.45;101006.91;5009778;28;20034;-93
2023/07/16 05:59:44;;;;;;;9.50;3.25;;;;;;;15.83;71.82;101008.59;4989369;28;20087;-91
2023/07/16 06:02:09;;;;;;;6.53;3.40;;;;;;;15.86;72.41;101012.88;5007140;28;20030;-91
2023/07/16 06:04:34;;;;;;;7.57;3.65;;;;;;;15.88;72.53;101013.66;5008782;28;20029;-93
2023/07/16 06:07:00;;;;;;;6.85;3.60;;;;;;;15.92;71.07;101025.72;5009927;28;20025;-92
2023/07/16 06:09:25;;;;;;;6.47;3.00;;;;;;;15.95;72.08;101020.34;5008834;28;20064;-92
2023/07/16 06:11:50;;;;;;;7.20;3.47;;;;;;;15.98;71.80;101027.22;5008713;28;20028;-91
2023/07/16 06:14:16;;;;;;;7.63;3.50;;;;;;;16.02;72.04;101028.78;5010487;28;20041;-93
2023/07/16 06:16:41;;;;;;;6.63;3.63;;;;;;;16.04;70.19;101026.94;4992648;28;20037;-91
2023/07/16 06:19:07;;;;;;;8.60;3.88;;;;;;;16.07;70.09;101040.78;5007872;28;20030;-92
2023/07/16 06:21:32;;;;;;;7.82;3.80;;;;;;;16.12;70.90;101032.69;5011117;28;20033;-91
2023/07/16 06:23:57;;;;;;;8.25;4.15;;;;;;;16.15;70.05;101045.69;5012278;28;20069;-90
2023/07/16 06:26:23;;;;;;;12.45;3.83;;;;;;;16.18;69.41;101048.16;5014067;28;20057;-92
2023/07/16 06:28:49;;;;;;;9.23;3.95;;;;;;;16.22;69.43;101049.72;5014969;28;20501;-92
2023/07/16 06:31:16;;;;;;;8.95;3.70;;;;;;;16.24;70.16;101060.16;4997541;28;20033;-92
2023/07/16 06:33:41;;;;;;;7.72;3.65;;;;;;;16.24;70.31;101052.28;4996583;28;20022;-91
2023/07/16 06:36:06;;;;;;;7.43;3.50;;;;;;;16.26;69.66;101054.81;5015214;28;20078;-92
2023/07/16 06:38:31;;;;;;;8.13;3.80;;;;;;;16.30;70.38;101051.13;5018843;28;20014;-91
2023/07/16 06:40:57;;;;;;;7.63;3.58;;;;;;;16.30;70.58;101056.38;5026767;28;20022;-92
2023/07/16 06:43:22;;;;;;;6.55;3.53;;;;;;;16.31;69.83;101066.81;5014974;28;20066;-91
2023/07/16 06:45:50;;;;;;;10.57;4.10;;;;;;;16.35;68.92;101060.50;4996404;28;20109;-92
2023/07/16 06:48:16;;;;;;;8.23;3.70;;;;;;;16.39;70.73;101058.59;5011500;28;20034;-91
2023/07/16 06:50:41;;;;;;;7.35;3.33;;;;;;;16.41;69.74;101064.59;5013777;28;20026;-91
2023/07/16 06:53:06;;;;;;;7.55;3.80;;;;;;;16.45;68.88;101053.03;5014679;28;20137;-92
2023/07/16 06:55:32;;;;;;;7.13;3.80;;;;;;;16.49;69.88;101056.34;5008382;28;20029;-93
2023/07/16 06:57:57;;;;;;;10.15;4.15;;;;;;;16.52;70.17;101062.34;4996435;28;20044;-93
2023/07/16 07:00:23;;;;;;;7.85;4.03;;;;;;;16.57;70.03;101069.16;4994709;28;20025;-92
2023/07/16 07:02:48;;;;;;;8.63;4.07;;;;;;;16.61;69.47;101074.19;5013477;28;20018;-94
2023/07/16 07:05:13;;;;;;;7.75;4.22;;;;;;;16.67;70.18;101067.78;5014393;28;20476;-93
2023/07/16 07:07:39;;;;;;;8.65;3.88;;;;;;;16.70;68.19;101078.16;5009799;28;20479;-92
2023/07/16 07:10:04;;;;;;;7.38;4.15;;;;;;;16.73;70.55;101075.38;5013087;28;20029;-94
2023/07/16 07:12:34;;;;;;;5.72;3.55;;;;;;;16.80;70.11;101073.31;5010853;28;20034;-93
2023/07/16 07:15:00;;;;;;;7.80;3.95;;;;;;;16.85;68.99;101073.91;5010357;28;20021;-91
2023/07/16 07:17:25;;;;;;;7.85;3.78;;;;;;;16.91;68.59;101078.03;4995167;28;20025;-91
2023/07/16 07:19:50;;;;;;;8.48;4.10;;;;;;;16.94;68.90;101083.13;5010952;28;20479;-92
2023/07/16 07:22:15;;;;;;;8.05;4.20;;;;;;;16.97;68.89;101078.63;5010907;28;20025;-91
2023/07/16 07:24:41;;;;;;;8.93;4.32;;;;;;;17.01;68.22;101088.97;4995767;28;20109;-92
2023/07/16 07:27:06;;;;;;;7.30;3.92;;;;;;;17.01;67.92;101084.56;5009380;28;20084;-94
2023/07/16 07:29:31;;;;;;;8.43;4.10;;;;;;;17.04;67.51;101094.94;4992071;28;20563;-92
2023/07/16 07:31:57;;;;;;;11.00;4.20;;;;;;;17.08;67.81;101095.63;4991481;28;20076;-93
2023/07/16 07:34:22;;;;;;;7.20;4.18;;;;;;;17.10;68.14;101088.53;5010630;28;20034;-92
2023/07/16 07:36:48;;;;;;;7.90;4.45;;;;;;;17.18;68.15;101098.66;5006292;28;20037;-92
2023/07/16 07:39:13;;;;;;;7.63;3.80;;;;;;;17.25;68.88;101090.41;4987169;28;20034;-91
2023/07/16 07:41:39;;;;;;;11.13;4.05;;;;;;;17.35;68.55;101093.41;5008304;28;20487;-92
2023/07/16 07:44:04;;;;;;;9.77;4.72;;;;;;;17.40;67.04;101101.94;5005473;28;20373;-92
2023/07/16 07:46:29;;;;;;;8.50;4.07;;;;;;;17.42;66.14;101105.31;5004558;28;20061;-94
2023/07/16 07:48:55;;;;;;;8.95;4.30;;;;;;;17.45;67.04;101097.28;4991597;28;20022;-93
2023/07/16 07:51:20;;;;;;;11.65;4.10;;;;;;;17.47;66.98;101097.22;5010133;28;20033;-90
2023/07/16 07:53:46;;;;;;;6.50;3.75;;;;;;;17.55;66.73;101096.81;4988631;28;20041;-91
2023/07/16 07:56:11;;;;;;;6.65;4.05;;;;;;;17.62;66.90;101103.44;5008782;28;20034;-93
2023/07/16 07:59:19;;;;;;;7.95;3.80;;;;;;;17.73;67.96;101114.28;5012744;28;20018;-93
2023/07/16 08:01:54;;;;;;;7.43;3.67;;;;;;;17.78;65.72;101111.41;4980061;28;20029;-95
2023/07/16 08:04:23;;;;;;;10.10;4.43;;;;;;;17.84;66.19;101107.63;4986183;28;20030;-94
2023/07/16 08:10:08;;;;;;;;;;;;;;;;;;;;;
2023/07/16 08:12:35;;;;;;;7.30;3.85;;;;;;;17.95;64.68;101118.41;5007061;28;20024;-94
2023/07/16 08:15:47;;;;;;;7.28;3.67;;;;;;;17.97;66.32;101113.09;5009730;28;20050;-93
2023/07/16 08:18:12;;;;;;;7.18;3.45;;;;;;;17.97;64.46;101108.66;4999198;28;20050;-92
2023/07/16 08:20:42;;;;;;;8.38;3.83;;;;;;;18.00;64.47;101112.97;4995275;23;20104;-93
2023/07/16 08:23:46;;;;;;;10.23;3.80;;;;;;;18.04;65.04;101114.47;5011555;28;20032;-95
2023/07/16 08:26:35;;;;;;;8.02;4.18;;;;;;;18.09;64.77;101109.00;5015597;28;20029;-93
2023/07/16 08:29:01;;;;;;;9.07;3.53;;;;;;;18.12;64.97;101114.94;5021551;28;20395;-94
2023/07/16 08:31:35;;;;;;;6.72;3.53;;;;;;;18.19;65.07;101118.09;5017349;28;20025;-95
2023/07/16 08:34:00;;;;;;;7.05;3.70;;;;;;;18.24;65.46;101109.94;5024344;28;20052;-94
2023/07/16 08:36:28;;;;;;;8.40;3.70;;;;;;;18.30;64.70;101121.00;5020435;28;20025;-93
2023/07/16 08:38:53;;;;;;;8.63;3.78;;;;;;;18.38;63.78;101125.00;5024049;28;20025;-92
2023/07/16 08:41:19;;;;;;;8.82;4.32;;;;;;;18.39;62.65;101110.91;5023098;28;20033;-91
2023/07/16 08:43:47;;;;;;;7.53;4.07;;;;;;;18.43;63.83;101117.72;5022396;28;20075;-93
2023/07/16 08:46:15;;;;;;;6.13;3.50;;;;;;;18.45;63.07;101121.94;5022815;28;20474;-92
2023/07/16 08:48:40;;;;;;;8.52;3.70;;;;;;;18.51;62.12;101131.31;5025298;28;20048;-87
2023/07/16 08:51:11;;;;;;;6.63;3.70;;;;;;;18.58;64.23;101116.00;5020244;28;20033;-94
2023/07/16 08:53:38;;;;;;;8.23;3.92;;;;;;;18.70;63.07;101119.75;5024761;28;20037;-93
2023/07/16 08:56:06;;;;;;;8.15;3.58;;;;;;;18.85;61.53;101128.59;5021370;28;20052;-92
2023/07/16 08:58:37;;;;;;;8.77;3.63;;;;;;;18.98;62.45;101129.63;5024572;28;20129;-94
2023/07/16 09:01:17;;;;;;;9.25;3.63;;;;;;;19.04;62.48;101126.66;5030871;28;20072;-94
2023/07/16 09:03:44;;;;;;;7.93;3.67;;;;;;;19.07;60.74;101133.53;5031726;28;20394;-95
2023/07/16 09:06:11;;;;;;;10.98;3.60;;;;;;;19.07;61.53;101125.63;5032519;28;20147;-95
2023/07/16 09:08:38;;;;;;;8.40;3.35;;;;;;;19.06;60.54;101121.28;5024599;28;20083;-95
2023/07/16 09:11:22;;;;;;;7.38;3.35;;;;;;;19.11;61.43;101132.44;5028631;28;20505;-94
2023/07/16 09:13:54;;;;;;;8.52;3.65;;;;;;;19.23;61.39;101128.19;5023415;28;20040;-92
2023/07/16 09:16:22;;;;;;;7.95;3.22;;;;;;;19.30;61.74;101128.72;5022055;28;20027;-94
2023/07/16 09:18:47;;;;;;;6.90;3.30;;;;;;;19.33;59.62;101139.06;5022634;28;20037;-93
2023/07/16 09:21:14;;;;;;;6.95;3.15;;;;;;;19.38;58.58;101126.47;5023001;28;20580;-94
2023/07/16 09:23:42;;;;;;;5.13;2.70;;;;;;;19.44;59.76;101131.41;5026428;28;20033;-93
2023/07/16 09:26:09;;;;;;;6.65;2.75;;;;;;;19.53;59.17;101146.69;5028613;28;20490;-95
2023/07/16 09:28:51;;;;;;;5.78;2.80;;;;;;;19.65;59.87;101141.59;5246869;23;20054;-95
2023/07/16 09:31:25;;;;;;;7.30;3.10;;;;;;;19.68;59.70;101141.44;4982967;23;20066;-96
2023/07/16 09:33:51;;;;;;;5.15;2.80;;;;;;;19.71;58.72;101143.91;4971698;28;20149;-95
2023/07/16 09:36:24;;;;;;;7.10;3.10;;;;;;;19.74;58.21;101151.63;4952939;28;20109;-92
2023/07/16 09:39:09;;;;;;;6.53;3.00;;;;;;;19.74;58.42;101154.28;4982371;28;20038;-93
2023/07/16 09:41:35;;;;;;;4.95;2.78;;;;;;;19.71;56.24;101154.44;4989430;28;20038;-89
2023/07/16 09:44:01;;;;;;;6.50;3.25;;;;;;;19.68;56.25;101159.91;4989381;28;20033;-95
2023/07/16 09:46:26;;;;;;;6.07;2.97;;;;;;;19.67;56.34;101155.56;4954308;28;20030;-91
2023/07/16 09:48:52;;;;;;;7.30;2.67;;;;;;;19.69;56.60;101145.78;4995850;28;20205;-91
2023/07/16 09:51:18;;;;;;;7.63;2.78;;;;;;;19.82;57.77;101161.72;5006948;28;20030;-93
2023/07/16 09:53:46;;;;;;;5.57;3.03;;;;;;;19.86;57.33;101169.38;4970281;28;20484;-91
2023/07/16 09:56:13;;;;;;;5.20;2.80;;;;;;;19.89;56.94;101167.53;4985432;28;20228;-91
2023/07/16 09:58:39;;;;;;;8.18;2.72;;;;;;;19.92;56.09;101175.28;4987430;28;20062;-91
2023/07/16 10:01:06;;;;;;;7.00;2.63;;;;;;;19.94;56.82;101183.94;4989525;28;20050;-94
2023/07/16 10:03:32;;;;;;;5.28;3.00;;;;;;;19.94;55.38;101174.22;4971693;28;21312;-95
2023/07/16 10:06:08;;;;;;;5.38;2.60;;;;;;;19.94;56.72;101181.31;4987735;28;20039;-94
2023/07/16 10:08:34;;;;;;;6.03;2.80;;;;;;;19.86;54.85;101181.75;4988462;28;20030;-92
2023/07/16 10:11:01;;;;;;;4.32;2.42;;;;;;;19.80;55.56;101182.97;4986175;28;20455;-93
2023/07/16 10:13:29;;;;;;;5.07;2.70;;;;;;;19.80;56.30;101190.00;4985753;28;20022;-95
2023/07/16 10:15:59;;;;;;;6.60;2.55;;;;;;;19.82;57.16;101183.69;4976658;28;20138;-94
2023/07/16 10:18:34;;;;;;;6.63;2.90;;;;;;;19.91;55.98;101186.78;4975842;28;20037;-95
2023/07/16 10:21:23;;;;;;;5.10;2.67;;;;;;;20.03;57.54;101199.22;4956120;28;20046;-95
2023/07/16 10:23:59;;;;;;;7.38;2.75;;;;;;;20.06;56.46;101196.41;4970882;28;20037;-95
2023/07/16 10:26:42;;;;;;;4.95;2.67;;;;;;;20.13;56.59;101205.69;4956181;28;20007;-94
2023/07/16 10:29:08;;;;;;;7.07;3.03;;;;;;;20.19;55.92;101211.50;4971026;28;20200;-93
2023/07/16 10:31:35;;;;;;;4.43;2.42;;;;;;;20.23;56.62;101202.47;4970965;28;20551;-95
2023/07/16 10:34:09;;;;;;;7.07;2.83;;;;;;;20.27;56.04;101206.63;4990367;28;20045;-96
2023/07/16 10:37:27;;;;;;;7.20;2.88;;;;;;;20.31;56.54;101202.84;4973539;28;20458;-96
2023/07/16 10:40:04;;;;;;;5.65;2.80;;;;;;;20.38;56.60;101204.16;4976047;28;20058;-95
2023/07/16 10:42:33;;;;;;;8.32;3.13;;;;;;;20.41;55.01;101221.66;4975684;28;20034;-95
2023/07/16 10:45:00;;;;;;;6.28;2.95;;;;;;;20.41;55.00;101219.00;4957104;28;20046;-92
2023/07/16 10:47:34;;;;;;;6.50;2.95;;;;;;;20.41;55.52;101209.25;4971625;28;20523;-94
2023/07/16 10:50:00;;;;;;;6.13;2.60;;;;;;;20.38;54.28;101212.09;4971534;28;20073;-92
2023/07/16 10:52:26;;;;;;;5.45;2.65;;;;;;;20.37;55.58;101207.75;4971016;28;20479;-93
2023/07/16 10:54:55;;;;;;;5.63;2.60;;;;;;;20.36;56.69;101216.63;4988769;28;20096;-93
2023/07/16 10:57:22;;;;;;;5.57;2.70;;;;;;;20.41;55.08;101205.78;4971309;28;20830;-93
2023/07/16 10:59:54;;;;;;;6.10;2.75;;;;;;;20.44;56.11;101205.56;4991607;28;20031;-95
2023/07/16 11:02:24;;;;;;;9.38;2.83;;;;;;;20.54;55.20;101211.13;4974393;28;20019;-96
2023/07/16 11:04:53;;;;;;;6.38;2.67;;;;;;;20.62;54.02;101211.53;4989503;28;20058;-95
2023/07/16 11:07:18;;;;;;;5.47;3.00;;;;;;;20.70;54.71;101206.59;4988285;28;20018;-90
2023/07/16 11:09:48;;;;;;;7.22;2.95;;;;;;;20.76;55.26;101215.97;4988330;28;20041;-92
2023/07/16 11:12:15;;;;;;;5.90;2.97;;;;;;;20.75;54.41;101225.69;4973713;28;20045;-92
2023/07/16 11:17:53;;;;;;;5.53;2.67;;;;;;;20.72;53.81;101225.84;5003930;23;20077;-96
2023/07/16 11:20:23;;;;;;;5.18;2.55;;;;;;;20.68;53.80;101234.91;5008136;28;20069;-93
2023/07/16 11:22:49;;;;;;;5.25;2.78;;;;;;;20.66;53.40;101235.97;4990294;28;20048;-91
2023/07/16 11:25:15;;;;;;;6.28;2.67;;;;;;;20.65;53.93;101242.19;5015167;28;20557;-94
2023/07/16 11:27:46;;;;;;;6.43;2.78;;;;;;;20.63;54.40;101242.31;5006901;28;20388;-96
2023/07/16 11:30:52;;;;;;;6.78;2.80;;;;;;;20.68;55.18;101240.19;5018264;28;20048;-96
2023/07/16 11:33:17;;;;;;;4.38;2.45;;;;;;;20.72;54.13;101240.88;4979627;28;20044;-92
2023/07/16 11:35:47;;;;;;;6.80;2.90;;;;;;;20.76;54.68;101243.28;5003427;28;20515;-94